createdAt,value
2019-03-23T00:03:58.620Z,10.95
2019-03-23T00:10:05.433Z,10.84
2019-03-23T00:16:11.991Z,10.65
2019-03-23T00:22:18.546Z,10.43
2019-03-23T00:28:25.244Z,10.30
2019-03-23T00:34:32.114Z,10.24
2019-03-23T00:40:38.697Z,10.13
2019-03-23T00:46:45.674Z,10.04
2019-03-23T00:52:52.405Z,9.92
2019-03-23T00:58:59.156Z,9.81
2019-03-23T01:05:07.048Z,9.59
2019-03-23T01:11:14.206Z,9.55
2019-03-23T01:17:20.858Z,9.59
2019-03-23T01:23:27.625Z,9.88
2019-03-23T01:29:34.352Z,10.11
2019-03-23T01:35:41.080Z,10.15
2019-03-23T01:41:47.920Z,10.00
2019-03-23T01:47:54.492Z,9.90
2019-03-23T01:54:01.280Z,9.70
2019-03-23T02:00:08.765Z,9.47
2019-03-23T02:06:15.305Z,9.05
2019-03-23T02:12:21.915Z,8.84
2019-03-23T02:18:28.521Z,8.82
2019-03-23T02:24:35.440Z,8.79
2019-03-23T02:30:42.079Z,8.75
2019-03-23T02:36:48.648Z,8.74
2019-03-23T02:42:55.196Z,8.70
2019-03-23T02:49:01.756Z,8.71
2019-03-23T02:55:08.822Z,8.68
2019-03-23T03:01:15.388Z,8.69
2019-03-23T03:07:21.937Z,8.74
2019-03-23T03:13:28.508Z,8.78
2019-03-23T03:19:35.261Z,8.83
2019-03-23T03:25:42.202Z,8.84
2019-03-23T03:31:48.910Z,8.86
2019-03-23T03:37:57.179Z,8.94
2019-03-23T03:44:03.756Z,9.01
2019-03-23T03:50:10.973Z,9.13
2019-03-23T03:56:17.610Z,9.08
2019-03-23T04:02:24.130Z,9.13
2019-03-23T04:08:30.758Z,9.07
2019-03-23T04:14:37.762Z,9.07
2019-03-23T04:20:44.394Z,9.13
2019-03-23T04:26:50.944Z,9.17
2019-03-23T04:32:57.804Z,9.27
2019-03-23T04:39:05.421Z,9.29
2019-03-23T04:45:12.502Z,9.33
2019-03-23T04:51:19.133Z,9.38
2019-03-23T04:57:25.635Z,9.40
2019-03-23T05:03:32.300Z,9.31
2019-03-23T05:09:39.044Z,9.34
2019-03-23T05:15:45.849Z,9.31
2019-03-23T05:21:52.377Z,9.25
2019-03-23T05:27:58.980Z,9.41
2019-03-23T05:34:05.508Z,9.48
2019-03-23T05:40:12.440Z,9.53
2019-03-23T05:46:19.107Z,9.57
2019-03-23T05:52:25.637Z,9.60
2019-03-23T05:58:32.219Z,9.58
2019-03-23T06:04:38.830Z,9.54
2019-03-23T06:10:45.398Z,9.45
2019-03-23T06:16:52.021Z,9.52
2019-03-23T06:22:58.581Z,9.54
2019-03-23T06:29:05.330Z,9.49
2019-03-23T06:35:12.103Z,9.41
2019-03-23T06:41:18.769Z,9.46
2019-03-23T06:47:25.485Z,9.59
2019-03-23T06:53:32.066Z,9.59
2019-03-23T06:59:38.845Z,9.75
2019-03-23T07:05:45.455Z,9.77
2019-03-23T07:11:52.115Z,9.91
2019-03-23T07:17:58.848Z,10.00
2019-03-23T07:24:05.446Z,10.06
2019-03-23T07:30:14.585Z,10.17
2019-03-23T07:36:21.368Z,10.26
2019-03-23T07:42:27.991Z,10.42
2019-03-23T07:48:34.522Z,10.48
2019-03-23T07:54:41.131Z,10.60
2019-03-23T08:00:47.699Z,10.66
2019-03-23T08:06:54.508Z,10.82
2019-03-23T08:13:01.595Z,10.93
2019-03-23T08:19:08.186Z,11.01
2019-03-23T08:25:14.782Z,11.02
2019-03-23T08:31:21.328Z,11.10
2019-03-23T08:37:27.940Z,11.09
2019-03-23T08:43:34.564Z,11.22
2019-03-23T08:49:41.448Z,11.16
2019-03-23T08:55:48.227Z,11.25
2019-03-23T09:01:54.885Z,11.36
2019-03-23T09:08:01.937Z,11.33
2019-03-23T09:14:08.739Z,11.38
2019-03-23T09:20:15.408Z,11.39
2019-03-23T09:26:22.012Z,11.38
2019-03-23T09:32:28.586Z,11.54
2019-03-23T09:38:35.209Z,11.45
2019-03-23T09:44:42.206Z,11.47
2019-03-23T09:50:48.842Z,11.60
2019-03-23T09:56:55.598Z,11.64
2019-03-23T10:03:02.406Z,11.91
2019-03-23T10:09:09.820Z,12.12
2019-03-23T10:15:16.470Z,12.23
2019-03-23T10:21:23.235Z,12.38
2019-03-23T10:27:29.847Z,12.48
2019-03-23T10:33:36.587Z,12.61
2019-03-23T10:39:43.393Z,12.80
2019-03-23T10:45:50.159Z,13.05
2019-03-23T10:51:56.862Z,13.30
2019-03-23T10:58:03.542Z,13.51
2019-03-23T11:04:10.110Z,13.73
2019-03-23T11:10:16.946Z,13.66
2019-03-23T11:16:23.600Z,13.81
2019-03-23T11:22:30.249Z,14.00
2019-03-23T11:28:36.817Z,14.09
2019-03-23T11:34:43.533Z,14.36
2019-03-23T11:40:54.926Z,14.66
2019-03-23T11:46:59.081Z,14.58
2019-03-23T11:53:06.074Z,14.99
2019-03-23T11:59:12.711Z,15.06
2019-03-23T12:05:19.307Z,14.96
2019-03-23T12:11:25.989Z,14.80
2019-03-23T12:17:32.651Z,14.69
2019-03-23T12:23:39.257Z,14.82
2019-03-23T12:29:45.834Z,14.67
2019-03-23T12:35:52.641Z,14.63
2019-03-23T12:42:01.003Z,14.64
2019-03-23T12:48:07.658Z,14.76
2019-03-23T12:54:14.322Z,14.79
2019-03-23T13:00:21.090Z,14.69
2019-03-23T13:06:27.693Z,14.56
2019-03-23T13:12:34.307Z,14.63
2019-03-23T13:18:41.051Z,14.93
2019-03-23T13:24:47.861Z,14.85
2019-03-23T13:30:54.438Z,14.98
2019-03-23T13:37:01.104Z,14.77
2019-03-23T13:43:07.904Z,14.77
2019-03-23T13:49:14.484Z,14.84
2019-03-23T13:55:33.323Z,14.82
2019-03-23T14:01:40.370Z,14.76
2019-03-23T14:07:47.193Z,14.86
2019-03-23T14:13:53.919Z,14.92
2019-03-23T14:20:00.644Z,14.88
2019-03-23T14:26:07.468Z,14.67
2019-03-23T14:32:14.191Z,14.57
2019-03-23T14:38:20.774Z,14.41
2019-03-23T14:44:27.642Z,14.30
2019-03-23T14:50:34.337Z,14.16
2019-03-23T14:56:40.917Z,14.25
2019-03-23T15:02:47.957Z,14.31
2019-03-23T15:08:54.640Z,14.28
2019-03-23T15:15:01.301Z,14.21
2019-03-23T15:21:07.966Z,14.26
2019-03-23T15:27:14.854Z,14.19
2019-03-23T15:33:21.580Z,14.22
2019-03-23T15:39:28.261Z,14.11
2019-03-23T15:45:35.064Z,14.07
2019-03-23T15:51:41.762Z,13.86
2019-03-23T15:57:48.437Z,13.83
2019-03-23T16:03:55.062Z,13.65
2019-03-23T16:10:01.775Z,13.55
2019-03-23T16:16:08.399Z,13.56
2019-03-23T16:22:15.328Z,13.50
2019-03-23T16:28:21.920Z,13.57
2019-03-23T16:34:28.529Z,13.50
2019-03-23T16:40:35.312Z,13.54
2019-03-23T16:46:42.097Z,13.56
2019-03-23T16:52:48.808Z,13.55
2019-03-23T16:58:55.614Z,13.51
2019-03-23T17:05:02.289Z,13.54
2019-03-23T17:11:08.937Z,13.43
2019-03-23T17:17:15.774Z,13.26
2019-03-23T17:23:22.359Z,13.20
2019-03-23T17:29:28.946Z,13.19
2019-03-23T17:35:35.551Z,13.19
2019-03-23T17:41:42.307Z,13.09
2019-03-23T17:47:48.891Z,12.93
2019-03-23T17:53:58.954Z,12.86
2019-03-23T18:00:03.993Z,12.72
2019-03-23T18:06:10.645Z,12.70
2019-03-23T18:12:17.553Z,12.60
2019-03-23T18:18:24.706Z,12.59
2019-03-23T18:24:31.497Z,12.43
2019-03-23T18:30:43.117Z,12.41
2019-03-23T18:36:50.129Z,12.36
2019-03-23T18:42:57.078Z,12.15
2019-03-23T18:49:04.015Z,12.10
2019-03-23T18:55:10.844Z,12.08
2019-03-23T19:01:17.659Z,12.12
2019-03-23T19:07:24.418Z,12.12
2019-03-23T19:13:37.907Z,12.10
2019-03-23T19:19:39.782Z,12.05
2019-03-23T19:25:46.461Z,12.08
2019-03-23T19:31:53.934Z,12.14
2019-03-23T19:38:02.529Z,12.13
2019-03-23T19:44:09.267Z,12.04
2019-03-23T19:50:16.165Z,11.97
2019-03-23T19:56:22.997Z,11.97
2019-03-23T20:02:29.840Z,11.99
2019-03-23T20:08:36.749Z,11.97
2019-03-23T20:14:43.297Z,11.88
2019-03-23T20:20:49.930Z,11.90
2019-03-23T20:26:56.579Z,11.90
2019-03-23T20:33:03.470Z,11.90
2019-03-23T20:39:10.313Z,11.83
2019-03-23T20:45:28.941Z,11.83
2019-03-23T20:51:35.604Z,11.83
2019-03-23T20:57:42.526Z,11.92
2019-03-23T21:03:49.542Z,11.86
2019-03-23T21:09:56.140Z,11.86
2019-03-23T21:16:02.806Z,11.80
2019-03-23T21:22:09.661Z,11.73
2019-03-23T21:28:16.779Z,11.65
2019-03-23T21:34:25.980Z,11.55
2019-03-23T21:40:34.984Z,11.39
2019-03-23T21:46:41.276Z,11.38
2019-03-23T21:52:47.981Z,11.34
2019-03-23T21:58:54.603Z,11.31
2019-03-23T22:05:01.487Z,11.28
2019-03-23T22:11:08.028Z,11.31
2019-03-23T22:17:14.786Z,11.36
2019-03-23T22:23:21.689Z,11.40
2019-03-23T22:29:28.284Z,11.36
2019-03-23T22:35:34.882Z,11.30
2019-03-23T22:41:41.725Z,11.32
2019-03-23T22:47:48.672Z,11.30
2019-03-23T22:53:55.547Z,11.27
2019-03-23T23:00:02.211Z,11.22
2019-03-23T23:06:09.002Z,11.19
2019-03-23T23:12:15.633Z,11.17
2019-03-23T23:18:22.223Z,11.12
2019-03-23T23:24:28.829Z,11.12
2019-03-23T23:30:35.496Z,11.06
2019-03-23T23:36:42.388Z,10.90
2019-03-23T23:42:48.959Z,10.84
2019-03-23T23:48:55.545Z,10.81
2019-03-23T23:55:02.122Z,10.74
